METAR Data
IDs: Format: Raw Decoded Include TAF

Data at: 0813 UTC 01 Aug 2021

SBGR 010800Z 07006KT 9999 BKN011 09/09 Q1029